Time;durP1;ratioP1;P1;durP2;ratioP2;P2;SDS_P1;SDS_P2;PMS_P1;PMS_P2;Temp;Humidity;BMP_temperature;BMP_pressure;BME280_temperature;BME280_humidity;BME280_pressure;Samples;Min_cycle;Max_cycle;Signal;HPM_P1;HPM_P2
2021/10/29 00:01:43;;;;;;;26.00;19.40;;;8.00;99.90;;;;;;5072451;28;20447;-86
2021/10/29 00:04:10;;;;;;;23.60;18.80;;;8.10;99.90;;;;;;5073178;28;20501;-86
2021/10/29 00:06:38;;;;;;;31.93;20.17;;;8.00;99.90;;;;;;5073333;28;20846;-86
2021/10/29 00:09:05;;;;;;;20.97;18.60;;;8.00;99.90;;;;;;5075745;28;20570;-88
2021/10/29 00:11:31;;;;;;;25.33;18.17;;;8.00;99.90;;;;;;5076793;28;20477;-87
2021/10/29 00:13:58;;;;;;;25.07;19.27;;;8.00;99.90;;;;;;5076357;28;21027;-87
2021/10/29 00:16:24;;;;;;;28.30;18.80;;;8.00;99.90;;;;;;5077034;28;20525;-87
2021/10/29 00:18:51;;;;;;;24.00;19.63;;;8.00;99.90;;;;;;5076776;28;20510;-87
2021/10/29 00:21:18;;;;;;;25.33;19.63;;;8.00;99.90;;;;;;5076164;28;20543;-87
2021/10/29 00:23:45;;;;;;;23.03;19.43;;;8.00;99.90;;;;;;5076261;28;20451;-87
2021/10/29 00:26:12;;;;;;;26.37;20.07;;;7.90;99.90;;;;;;5076323;28;20549;-88
2021/10/29 00:28:39;;;;;;;26.47;19.23;;;7.90;99.90;;;;;;5076355;28;20543;-87
2021/10/29 00:31:05;;;;;;;22.83;19.40;;;7.90;99.90;;;;;;5076203;28;21001;-87
2021/10/29 00:33:32;;;;;;;26.90;20.83;;;7.90;99.90;;;;;;5076503;28;20501;-87
2021/10/29 00:35:58;;;;;;;24.93;18.60;;;7.80;99.90;;;;;;5076628;28;20458;-87
2021/10/29 00:38:26;;;;;;;26.90;18.87;;;7.80;99.90;;;;;;5076250;28;20455;-86
2021/10/29 00:40:54;;;;;;;28.67;20.17;;;7.80;99.90;;;;;;5078204;28;20464;-86
2021/10/29 00:43:20;;;;;;;29.53;19.80;;;7.80;99.90;;;;;;5085128;28;20792;-86
2021/10/29 00:45:48;;;;;;;23.53;19.60;;;7.80;99.90;;;;;;5076623;28;20534;-86
2021/10/29 00:48:15;;;;;;;28.50;18.80;;;7.80;99.90;;;;;;5076436;28;20536;-86
2021/10/29 00:50:42;;;;;;;26.87;20.23;;;7.80;99.90;;;;;;5076491;28;20521;-87
2021/10/29 00:53:10;;;;;;;28.57;21.97;;;7.80;99.90;;;;;;5076223;28;20447;-87
2021/10/29 00:55:37;;;;;;;31.20;21.80;;;7.80;99.90;;;;;;5075869;28;20455;-87
2021/10/29 00:58:05;;;;;;;26.60;20.50;;;7.80;99.90;;;;;;5075966;28;20562;-87
2021/10/29 01:00:32;;;;;;;26.17;19.30;;;7.70;99.90;;;;;;5076062;28;21012;-86
2021/10/29 01:02:58;;;;;;;29.20;20.00;;;7.80;99.90;;;;;;5076061;28;20483;-84
2021/10/29 01:05:25;;;;;;;27.93;20.57;;;7.70;99.90;;;;;;5076007;28;20483;-86
2021/10/29 01:07:53;;;;;;;28.10;20.57;;;7.70;99.90;;;;;;5076129;28;20542;-86
2021/10/29 01:10:20;;;;;;;27.50;20.53;;;7.70;99.90;;;;;;5075430;28;20514;-86
2021/10/29 01:12:46;;;;;;;24.00;19.77;;;7.70;99.90;;;;;;5075284;28;20521;-86
2021/10/29 01:15:14;;;;;;;29.07;22.10;;;7.70;99.90;;;;;;5075172;28;20443;-87
2021/10/29 01:17:41;;;;;;;24.73;20.67;;;7.70;99.90;;;;;;5075729;28;20487;-89
2021/10/29 01:20:09;;;;;;;32.03;22.70;;;7.60;99.90;;;;;;5075213;28;20946;-90
2021/10/29 01:22:37;;;;;;;28.10;20.13;;;7.70;99.90;;;;;;5075393;28;20490;-90
2021/10/29 01:25:05;;;;;;;27.70;21.60;;;7.60;99.90;;;;;;5075176;28;20475;-89
2021/10/29 01:27:31;;;;;;;25.93;20.60;;;7.60;99.90;;;;;;5075640;28;20534;-90
2021/10/29 01:29:59;;;;;;;32.00;21.60;;;7.60;99.90;;;;;;5075497;28;20472;-81
2021/10/29 01:32:26;;;;;;;26.73;20.77;;;7.60;99.90;;;;;;5073760;28;20451;-81
2021/10/29 01:34:53;;;;;;;30.07;22.13;;;7.60;99.90;;;;;;5074996;28;20487;-81
2021/10/29 01:37:19;;;;;;;27.37;21.20;;;7.60;99.90;;;;;;5074927;28;20447;-81
2021/10/29 01:39:47;;;;;;;31.13;20.70;;;7.60;99.90;;;;;;5074648;28;20455;-81
2021/10/29 01:42:14;;;;;;;30.60;21.70;;;7.50;99.90;;;;;;5074302;28;20538;-80
2021/10/29 01:44:42;;;;;;;32.00;23.40;;;7.50;99.90;;;;;;5074718;28;20537;-80
2021/10/29 01:47:09;;;;;;;28.30;22.00;;;7.40;99.90;;;;;;5074730;28;20478;-80
2021/10/29 01:49:38;;;;;;;30.80;22.87;;;7.40;99.90;;;;;;5074381;28;20984;-80
2021/10/29 01:52:05;;;;;;;28.17;21.53;;;7.40;99.90;;;;;;5074464;28;20487;-80
2021/10/29 01:54:31;;;;;;;31.60;22.00;;;7.40;99.90;;;;;;5074198;28;20488;-81
2021/10/29 01:56:59;;;;;;;34.70;23.90;;;7.30;99.90;;;;;;5072974;28;20475;-80
2021/10/29 01:59:27;;;;;;;27.13;21.50;;;7.30;99.90;;;;;;5074213;28;20479;-80
2021/10/29 02:01:53;;;;;;;30.10;22.80;;;7.30;99.90;;;;;;5074055;28;20482;-80
2021/10/29 02:04:21;;;;;;;30.60;23.87;;;7.30;99.90;;;;;;5074185;28;20452;-80
2021/10/29 02:06:47;;;;;;;32.13;23.80;;;7.30;99.90;;;;;;5074029;28;20483;-80
2021/10/29 02:09:14;;;;;;;33.67;23.47;;;7.30;99.90;;;;;;5073874;28;20511;-80
2021/10/29 02:11:42;;;;;;;31.53;22.93;;;7.30;99.90;;;;;;5073778;28;20466;-80
2021/10/29 02:14:10;;;;;;;34.83;25.70;;;7.30;99.90;;;;;;5073959;28;20457;-80
2021/10/29 02:16:37;;;;;;;38.47;24.27;;;7.30;99.90;;;;;;5074038;28;20878;-80
2021/10/29 02:19:04;;;;;;;39.47;26.10;;;7.30;99.90;;;;;;5073887;28;20595;-80
2021/10/29 02:21:32;;;;;;;34.95;24.00;;;7.30;99.90;;;;;;5073806;28;20455;-80
2021/10/29 02:23:58;;;;;;;32.80;24.70;;;7.20;99.90;;;;;;5073442;28;20224;-80
2021/10/29 02:26:25;;;;;;;32.45;23.90;;;7.20;99.90;;;;;;5073349;28;20506;-79
2021/10/29 02:28:52;;;;;;;32.67;24.10;;;7.20;99.90;;;;;;5073478;28;20189;-80
2021/10/29 02:31:20;;;;;;;34.30;25.23;;;7.20;99.90;;;;;;5072877;28;20542;-79
2021/10/29 02:33:47;;;;;;;33.72;24.35;;;7.20;99.90;;;;;;5073514;28;20543;-79
2021/10/29 02:36:13;;;;;;;33.77;24.30;;;7.20;99.90;;;;;;5073387;28;20190;-80
2021/10/29 02:38:40;;;;;;;34.67;25.43;;;7.10;99.90;;;;;;5073268;28;20486;-80
2021/10/29 02:41:07;;;;;;;32.87;24.60;;;7.10;99.90;;;;;;5073316;28;20478;-80
2021/10/29 02:43:33;;;;;;;33.43;25.77;;;7.10;99.90;;;;;;5073399;28;20471;-80
2021/10/29 02:46:00;;;;;;;32.63;24.57;;;7.10;99.90;;;;;;5073285;28;20452;-80
2021/10/29 02:48:28;;;;;;;35.60;25.10;;;7.10;99.90;;;;;;5072939;28;21013;-79
2021/10/29 02:50:54;;;;;;;34.87;25.00;;;7.00;99.90;;;;;;5073091;28;20514;-81
2021/10/29 02:53:21;;;;;;;39.30;25.83;;;7.00;99.90;;;;;;5073054;28;20493;-81
2021/10/29 02:55:47;;;;;;;33.70;24.83;;;7.10;99.90;;;;;;5073273;28;20543;-81
2021/10/29 02:58:14;;;;;;;37.67;26.37;;;7.00;99.90;;;;;;5073116;28;20888;-81
2021/10/29 03:00:41;;;;;;;38.07;26.20;;;7.00;99.90;;;;;;5073111;28;20872;-81
2021/10/29 03:03:07;;;;;;;36.90;26.50;;;7.00;99.90;;;;;;5073066;28;20455;-81
2021/10/29 03:05:37;;;;;;;34.00;25.67;;;7.00;99.90;;;;;;5072970;28;20528;-81
2021/10/29 03:08:04;;;;;;;35.13;23.97;;;7.00;99.90;;;;;;5072923;28;20447;-81
2021/10/29 03:10:32;;;;;;;37.37;25.07;;;6.90;99.90;;;;;;5073087;28;20523;-81
2021/10/29 03:12:58;;;;;;;33.47;25.70;;;6.90;99.90;;;;;;5072846;28;20458;-81
2021/10/29 03:15:25;;;;;;;34.80;24.40;;;6.90;99.90;;;;;;5073068;28;21220;-80
2021/10/29 03:17:52;;;;;;;34.60;25.00;;;6.90;99.90;;;;;;5072855;28;20458;-80
2021/10/29 03:20:18;;;;;;;37.60;25.90;;;6.90;99.90;;;;;;5072543;28;20500;-80
2021/10/29 03:22:46;;;;;;;32.13;24.27;;;6.90;99.90;;;;;;5072979;28;20479;-80
2021/10/29 03:25:13;;;;;;;32.47;24.47;;;6.80;99.90;;;;;;5072621;28;20562;-80
2021/10/29 03:27:39;;;;;;;36.00;25.30;;;6.80;99.90;;;;;;5072997;28;20517;-80
2021/10/29 03:30:08;;;;;;;36.73;25.67;;;6.80;99.90;;;;;;5072612;28;20953;-80
2021/10/29 03:32:35;;;;;;;38.03;24.57;;;6.70;99.90;;;;;;5072731;28;20447;-80
2021/10/29 03:35:02;;;;;;;35.40;24.92;;;6.70;99.90;;;;;;5072666;28;20873;-80
2021/10/29 03:37:49;;;;;;;33.13;24.47;;;6.60;99.90;;;;;;5072906;28;20189;-80
2021/10/29 03:40:23;;;;;;;37.53;26.45;;;6.60;99.90;;;;;;5072605;28;20455;-80
2021/10/29 03:42:57;;;;;;;36.03;26.47;;;6.60;99.90;;;;;;5075068;28;20275;-81
2021/10/29 03:45:23;;;;;;;37.42;25.10;;;6.60;99.90;;;;;;5077064;28;20539;-81
2021/10/29 03:47:53;;;;;;;36.20;25.48;;;6.60;99.90;;;;;;5076857;28;20189;-80
2021/10/29 03:50:23;;;;;;;34.60;26.77;;;6.50;99.90;;;;;;5076702;28;20209;-82
2021/10/29 03:52:54;;;;;;;42.00;26.30;;;6.50;99.90;;;;;;5077008;28;20849;-82
2021/10/29 03:55:25;;;;;;;35.00;25.17;;;6.50;99.90;;;;;;5075724;28;20479;-81
2021/10/29 03:57:51;;;;;;;35.65;27.40;;;6.50;99.90;;;;;;5076466;28;20443;-81
2021/10/29 04:00:18;;;;;;;36.15;25.33;;;6.40;99.90;;;;;;5076293;28;20222;-81
2021/10/29 04:02:45;;;;;;;36.67;27.50;;;6.40;99.90;;;;;;5076534;28;20283;-81
2021/10/29 04:05:11;;;;;;;34.08;26.30;;;6.40;99.90;;;;;;5075234;28;20478;-81
2021/10/29 04:07:38;;;;;;;33.73;24.70;;;6.40;99.90;;;;;;5075116;28;20556;-80
2021/10/29 04:10:05;;;;;;;37.88;27.90;;;6.40;99.90;;;;;;5074517;28;20505;-80
2021/10/29 04:12:33;;;;;;;38.78;24.80;;;6.40;99.90;;;;;;5074247;28;20608;-80
2021/10/29 04:15:00;;;;;;;35.80;26.17;;;6.30;99.90;;;;;;5074847;28;20192;-80
2021/10/29 04:17:26;;;;;;;37.70;26.30;;;6.40;99.90;;;;;;5074772;28;20451;-80
2021/10/29 04:19:53;;;;;;;36.35;25.95;;;6.30;99.90;;;;;;5074615;28;20494;-81
2021/10/29 04:22:19;;;;;;;34.55;24.85;;;6.40;99.90;;;;;;5074543;28;20216;-81
2021/10/29 04:24:46;;;;;;;38.73;26.20;;;6.30;99.90;;;;;;5074286;28;20220;-80
2021/10/29 04:27:21;;;;;;;39.88;27.13;;;6.30;99.90;;;;;;5076014;28;20475;-80
2021/10/29 04:29:50;;;;;;;36.60;26.40;;;6.30;99.90;;;;;;5075635;28;20228;-80
2021/10/29 04:32:17;;;;;;;36.83;25.27;;;6.30;99.90;;;;;;5075875;28;20814;-80
2021/10/29 04:34:44;;;;;;;38.08;27.52;;;6.20;99.90;;;;;;5075764;28;20231;-80
2021/10/29 04:37:10;;;;;;;35.88;26.50;;;6.20;99.90;;;;;;5075462;28;20595;-80
2021/10/29 04:39:37;;;;;;;43.95;27.85;;;6.20;99.90;;;;;;5075745;28;20251;-80
2021/10/29 04:42:04;;;;;;;40.03;27.98;;;6.20;99.90;;;;;;5075528;28;20189;-80
2021/10/29 04:44:31;;;;;;;33.72;25.60;;;6.20;99.90;;;;;;5075392;28;20190;-80
2021/10/29 04:46:59;;;;;;;38.80;27.60;;;6.20;99.90;;;;;;5075189;28;20239;-80
2021/10/29 04:49:25;;;;;;;37.97;26.47;;;6.20;99.90;;;;;;5074038;28;20451;-80
2021/10/29 04:51:52;;;;;;;35.78;26.55;;;6.20;99.90;;;;;;5075275;28;21015;-81
2021/10/29 04:54:19;;;;;;;36.03;26.70;;;6.20;99.90;;;;;;5074838;28;20193;-80
2021/10/29 04:56:47;;;;;;;34.42;26.90;;;6.20;99.90;;;;;;5075476;28;20247;-81
2021/10/29 04:59:15;;;;;;;39.00;27.00;;;6.20;99.90;;;;;;5075319;28;20196;-81
2021/10/29 05:01:43;;;;;;;36.00;27.00;;;6.10;99.90;;;;;;5075240;28;20451;-81
2021/10/29 05:04:11;;;;;;;36.53;27.37;;;6.10;99.90;;;;;;5075225;28;20455;-81
2021/10/29 05:06:38;;;;;;;39.42;26.30;;;6.10;99.90;;;;;;5075570;28;20530;-81
2021/10/29 05:09:05;;;;;;;36.17;27.13;;;6.00;99.90;;;;;;5075294;28;20189;-81
2021/10/29 05:11:31;;;;;;;35.22;26.20;;;6.10;99.90;;;;;;5075165;28;20586;-81
2021/10/29 05:13:58;;;;;;;37.45;28.75;;;6.10;99.90;;;;;;5074940;28;20228;-80
2021/10/29 05:16:24;;;;;;;43.28;29.25;;;6.00;99.90;;;;;;5075157;28;20284;-81
2021/10/29 05:18:51;;;;;;;40.43;27.50;;;6.00;99.90;;;;;;5074972;28;20225;-80
2021/10/29 05:21:19;;;;;;;34.60;26.60;;;6.00;99.90;;;;;;5075080;28;20487;-80
2021/10/29 05:23:45;;;;;;;44.20;29.23;;;6.00;99.90;;;;;;5075062;28;20452;-80
2021/10/29 05:26:12;;;;;;;35.38;25.80;;;6.00;99.90;;;;;;5074541;28;20311;-80
2021/10/29 05:28:39;;;;;;;40.25;27.88;;;6.00;99.90;;;;;;5074849;28;20221;-80
2021/10/29 05:31:06;;;;;;;39.13;28.05;;;5.90;99.90;;;;;;5074534;28;20223;-80
2021/10/29 05:33:33;;;;;;;36.40;27.33;;;5.90;99.90;;;;;;5074821;28;20196;-80
2021/10/29 05:36:00;;;;;;;36.60;24.95;;;5.90;99.90;;;;;;5074820;28;20193;-81
2021/10/29 05:38:28;;;;;;;33.00;26.17;;;5.80;99.90;;;;;;5074081;28;20182;-81
2021/10/29 05:40:55;;;;;;;39.25;27.23;;;5.80;99.90;;;;;;5074002;28;20242;-81
2021/10/29 05:43:22;;;;;;;35.40;25.48;;;5.80;99.90;;;;;;5074300;28;20189;-80
2021/10/29 05:45:48;;;;;;;40.22;27.67;;;5.80;99.90;;;;;;5074602;28;20196;-80
2021/10/29 05:48:15;;;;;;;37.88;26.77;;;5.70;99.90;;;;;;5074528;28;20212;-80
2021/10/29 05:50:47;;;;;;;34.47;26.92;;;5.70;99.90;;;;;;5074290;28;20262;-81
2021/10/29 05:53:20;;;;;;;38.70;29.08;;;5.80;99.90;;;;;;5074536;28;20556;-80
2021/10/29 05:55:48;;;;;;;43.00;27.97;;;5.70;99.90;;;;;;5071582;28;20853;-81
2021/10/29 05:58:15;;;;;;;35.22;26.65;;;5.70;99.90;;;;;;5073147;28;20884;-81
2021/10/29 06:00:42;;;;;;;33.65;25.75;;;5.70;99.90;;;;;;5073720;28;20276;-84
2021/10/29 06:03:09;;;;;;;34.83;25.92;;;5.70;99.90;;;;;;5074356;28;20280;-80
2021/10/29 06:05:35;;;;;;;37.72;27.38;;;5.70;99.90;;;;;;5072977;28;20197;-81
2021/10/29 06:08:02;;;;;;;33.53;25.55;;;5.70;99.90;;;;;;5074157;28;20220;-81
2021/10/29 06:10:29;;;;;;;38.58;28.45;;;5.70;99.90;;;;;;5073766;28;20312;-85
2021/10/29 06:12:57;;;;;;;39.13;28.13;;;5.70;99.90;;;;;;5074249;28;20250;-83
2021/10/29 06:15:24;;;;;;;35.67;26.90;;;5.70;99.90;;;;;;5073796;28;20189;-85
2021/10/29 06:17:51;;;;;;;36.78;26.83;;;5.80;99.90;;;;;;5074018;28;20486;-80
2021/10/29 06:20:18;;;;;;;37.83;28.52;;;5.80;99.90;;;;;;5073753;28;20284;-80
2021/10/29 06:22:47;;;;;;;42.25;28.27;;;5.70;99.90;;;;;;5073733;28;20644;-80
2021/10/29 06:25:16;;;;;;;40.00;27.35;;;5.80;99.90;;;;;;5072566;28;20224;-79
2021/10/29 06:30:28;;;;;;;45.15;27.75;;;5.80;99.90;;;;;;5070160;28;20290;-85
2021/10/29 06:32:55;;;;;;;40.90;29.15;;;5.80;99.90;;;;;;5072348;28;20212;-82
2021/10/29 06:35:22;;;;;;;38.63;27.88;;;5.80;99.90;;;;;;5071769;28;20247;-82
2021/10/29 06:37:48;;;;;;;41.78;27.45;;;5.90;99.90;;;;;;5071962;28;20881;-81
2021/10/29 06:40:16;;;;;;;39.72;28.88;;;5.90;99.90;;;;;;5072130;28;20185;-86
2021/10/29 06:42:48;;;;;;;42.28;26.60;;;6.00;99.90;;;;;;5072065;28;20645;-83
2021/10/29 06:45:23;;;;;;;45.75;30.02;;;6.00;99.90;;;;;;5069428;28;20204;-81
2021/10/29 06:48:04;;;;;;;39.25;27.80;;;6.10;99.90;;;;;;5071742;28;20545;-81
2021/10/29 07:01:44;;;;;;;36.25;28.08;;;6.50;99.90;;;;;;5071112;28;20714;-83
2021/10/29 07:40:14;;;;;;;42.10;31.52;;;7.00;99.90;;;;;;5073144;28;20274;-83
2021/10/29 07:42:50;;;;;;;41.50;28.63;;;7.10;99.90;;;;;;5072656;28;20182;-83
2021/10/29 07:45:16;;;;;;;37.97;29.80;;;7.10;99.90;;;;;;5073043;28;20451;-83
2021/10/29 07:47:43;;;;;;;40.53;30.33;;;7.20;99.90;;;;;;5073503;28;20544;-83
2021/10/29 07:50:12;;;;;;;39.00;30.03;;;7.20;99.90;;;;;;5073442;28;20820;-83
2021/10/29 07:52:40;;;;;;;37.93;30.93;;;7.20;99.90;;;;;;5072483;28;20514;-83
2021/10/29 07:55:09;;;;;;;39.33;29.97;;;7.30;99.90;;;;;;5072678;28;20480;-83
2021/10/29 07:57:36;;;;;;;39.17;30.80;;;7.30;99.90;;;;;;5070789;28;20539;-83
2021/10/29 08:00:07;;;;;;;45.37;30.00;;;7.40;99.90;;;;;;5072824;28;20540;-83
2021/10/29 08:02:33;;;;;;;40.27;30.20;;;7.40;99.90;;;;;;5072524;28;20972;-90
2021/10/29 08:05:00;;;;;;;37.70;29.83;;;7.50;99.90;;;;;;5072636;28;20520;-89
2021/10/29 08:07:28;;;;;;;39.43;29.30;;;7.60;99.90;;;;;;5072870;28;20482;-84
2021/10/29 08:09:56;;;;;;;40.20;30.83;;;7.70;99.90;;;;;;5072919;28;20459;-84
2021/10/29 08:12:23;;;;;;;36.87;29.67;;;7.70;99.90;;;;;;5071835;28;20479;-83
2021/10/29 08:14:50;;;;;;;43.30;30.67;;;7.70;99.90;;;;;;5071937;28;20443;-83
2021/10/29 08:17:18;;;;;;;39.10;28.90;;;7.80;99.90;;;;;;5071428;28;21284;-82
2021/10/29 08:19:46;;;;;;;39.67;31.00;;;7.90;99.90;;;;;;5070920;28;20476;-83
2021/10/29 08:22:13;;;;;;;40.00;29.30;;;8.00;99.90;;;;;;5070772;28;20538;-80
2021/10/29 08:24:40;;;;;;;37.87;28.20;;;8.00;99.90;;;;;;5071852;28;20447;-81
2021/10/29 08:27:09;;;;;;;39.20;29.57;;;8.10;99.90;;;;;;5072260;28;20443;-82
2021/10/29 08:29:37;;;;;;;34.47;27.00;;;8.10;99.90;;;;;;5074617;28;20862;-80
2021/10/29 08:32:05;;;;;;;36.83;29.90;;;8.10;99.90;;;;;;5075706;28;20541;-80
2021/10/29 08:34:32;;;;;;;37.23;27.80;;;8.20;99.90;;;;;;5075782;28;20878;-82
2021/10/29 08:36:59;;;;;;;40.53;29.23;;;8.30;99.90;;;;;;5076238;28;20458;-82
2021/10/29 08:39:27;;;;;;;39.10;27.70;;;8.30;99.90;;;;;;5074190;28;20505;-80
2021/10/29 08:41:55;;;;;;;35.27;26.80;;;8.40;99.90;;;;;;5075383;28;20485;-80
2021/10/29 08:44:23;;;;;;;36.30;28.60;;;8.40;99.90;;;;;;5071481;28;20448;-80
2021/10/29 08:46:50;;;;;;;37.70;28.47;;;8.50;99.90;;;;;;5072997;28;20526;-80
2021/10/29 08:49:18;;;;;;;34.30;26.37;;;8.50;99.90;;;;;;5075257;28;21001;-80
2021/10/29 08:51:47;;;;;;;30.90;27.07;;;8.50;99.90;;;;;;5075364;28;20857;-80
2021/10/29 08:54:13;;;;;;;34.67;27.70;;;8.60;99.90;;;;;;5075624;28;20534;-86
2021/10/29 08:56:40;;;;;;;37.70;27.37;;;8.60;99.90;;;;;;5074880;28;20965;-86
2021/10/29 08:59:13;;;;;;;34.57;26.50;;;8.60;99.90;;;;;;5076796;28;20493;-86
2021/10/29 09:01:54;;;;;;;35.10;27.43;;;8.70;99.90;;;;;;5074719;28;21072;-83
2021/10/29 09:04:24;;;;;;;37.70;29.43;;;8.70;99.90;;;;;;5074908;28;20853;-83
2021/10/29 09:06:57;;;;;;;36.93;26.10;;;8.80;99.90;;;;;;5075808;28;20447;-83
2021/10/29 09:09:46;;;;;;;34.80;27.10;;;8.80;99.90;;;;;;5075519;28;20452;-82
2021/10/29 09:31:22;;;;;;;32.27;25.50;;;8.90;99.90;;;;;;5075825;28;20439;-84
2021/10/29 09:31:58;;;;;;;32.90;26.43;;;9.10;99.90;;;;;;5075063;28;20580;-88
2021/10/29 09:34:26;;;;;;;29.87;23.93;;;9.20;99.90;;;;;;5075339;28;20447;-88
2021/10/29 09:36:53;;;;;;;33.60;25.53;;;9.20;99.90;;;;;;5075413;28;20534;-87
2021/10/29 09:39:22;;;;;;;33.80;26.27;;;9.20;99.90;;;;;;5074420;28;20818;-87
2021/10/29 09:42:02;;;;;;;29.93;23.13;;;9.30;99.90;;;;;;5075310;28;20447;-88
2021/10/29 09:44:39;;;;;;;29.40;23.70;;;9.30;99.90;;;;;;5055607;28;20448;-88
2021/10/29 09:47:06;;;;;;;29.70;22.70;;;9.40;99.90;;;;;;5055248;28;20870;-87
2021/10/29 09:49:36;;;;;;;26.57;22.70;;;9.40;99.90;;;;;;5054865;28;20444;-87
2021/10/29 09:52:45;;;;;;;30.47;22.63;;;9.50;99.90;;;;;;5054628;28;20834;-88
2021/10/29 09:55:18;;;;;;;26.27;21.73;;;9.50;99.90;;;;;;5054349;28;20452;-88
2021/10/29 09:57:47;;;;;;;28.13;22.20;;;9.50;99.90;;;;;;5054925;28;20447;-87
2021/10/29 10:00:14;;;;;;;27.43;21.63;;;9.60;99.90;;;;;;5055904;28;20502;-86
2021/10/29 10:02:43;;;;;;;27.93;22.90;;;9.60;99.90;;;;;;5055963;28;20530;-86
2021/10/29 10:05:13;;;;;;;30.40;22.20;;;9.60;99.90;;;;;;5071553;28;20443;-86
2021/10/29 10:07:42;;;;;;;30.77;22.60;;;9.70;99.90;;;;;;5075948;28;20530;-82
2021/10/29 10:10:12;;;;;;;29.50;22.37;;;9.70;99.90;;;;;;5075640;28;20850;-86
2021/10/29 10:12:40;;;;;;;27.17;22.77;;;9.80;99.90;;;;;;5074677;28;20570;-88
2021/10/29 10:15:09;;;;;;;25.57;20.50;;;9.80;99.90;;;;;;5074661;28;20574;-87
2021/10/29 10:17:36;;;;;;;29.60;22.07;;;9.90;99.90;;;;;;5075311;28;20848;-88
2021/10/29 10:20:05;;;;;;;26.10;20.13;;;9.90;99.90;;;;;;5072613;28;20973;-90
2021/10/29 10:22:39;;;;;;;30.23;23.93;;;9.90;99.90;;;;;;5071877;28;20454;-89
2021/10/29 10:25:11;;;;;;;27.90;20.87;;;9.90;99.90;;;;;;5072784;28;20467;-90
2021/10/29 10:28:07;;;;;;;27.83;24.13;;;10.00;99.90;;;;;;5068090;28;20458;-90
2021/10/29 10:42:37;;;;;;;28.20;21.90;;;10.10;99.90;;;;;;5068687;28;20446;-91
2021/10/29 10:45:13;;;;;;;27.70;21.53;;;10.20;99.90;;;;;;5072485;28;20526;-89
2021/10/29 10:47:42;;;;;;;31.27;22.93;;;10.20;99.90;;;;;;5067343;28;20522;-96
2021/10/29 10:50:15;;;;;;;26.37;22.83;;;10.30;99.90;;;;;;5073938;28;20432;-90
2021/10/29 10:53:22;;;;;;;27.70;23.00;;;10.30;99.90;;;;;;5073148;28;20479;-90
2021/10/29 10:56:01;;;;;;;24.93;21.73;;;10.30;99.90;;;;;;5073149;28;20512;-93
2021/10/29 10:58:38;;;;;;;25.40;20.13;;;10.40;99.90;;;;;;5073626;28;20505;-92
2021/10/29 11:01:24;;;;;;;25.77;20.50;;;10.40;99.90;;;;;;5069308;28;20439;-94
2021/10/29 11:06:58;;;;;;;26.40;20.70;;;10.40;99.90;;;;;;5062962;28;20440;-93
2021/10/29 11:10:06;;;;;;;23.50;19.87;;;10.50;99.90;;;;;;5074062;28;20451;-90
2021/10/29 11:13:05;;;;;;;23.60;18.23;;;10.50;99.90;;;;;;5070136;28;20486;-90
2021/10/29 11:15:32;;;;;;;27.07;21.67;;;10.50;99.90;;;;;;5069242;28;20448;-91
2021/10/29 11:18:01;;;;;;;24.10;19.63;;;10.60;99.90;;;;;;5071121;28;20954;-91
2021/10/29 11:20:45;;;;;;;24.90;19.80;;;10.60;99.90;;;;;;5073724;28;20443;-91
2021/10/29 11:23:18;;;;;;;23.10;19.87;;;10.60;99.90;;;;;;5074021;28;20866;-91
2021/10/29 11:25:53;;;;;;;23.77;20.00;;;10.70;99.90;;;;;;5073195;28;20510;-90
2021/10/29 11:28:26;;;;;;;20.30;18.30;;;10.70;99.90;;;;;;5057633;28;20539;-89
2021/10/29 11:30:55;;;;;;;23.27;19.57;;;10.70;99.90;;;;;;5073876;28;20444;-91
2021/10/29 11:33:22;;;;;;;24.40;20.00;;;10.70;99.90;;;;;;5073494;28;20479;-90
2021/10/29 11:35:59;;;;;;;26.00;21.17;;;10.80;99.90;;;;;;5073243;28;20451;-86
2021/10/29 11:38:27;;;;;;;25.47;20.30;;;10.80;99.90;;;;;;5062853;28;20443;-90
2021/10/29 11:40:54;;;;;;;23.17;19.23;;;10.80;99.90;;;;;;5069688;28;20475;-95
2021/10/29 11:43:23;;;;;;;22.83;20.40;;;10.90;99.90;;;;;;5073339;28;20497;-89
2021/10/29 11:45:50;;;;;;;20.00;17.90;;;10.90;99.90;;;;;;5070961;28;20475;-92
2021/10/29 11:48:17;;;;;;;32.57;20.97;;;10.90;99.90;;;;;;5073084;28;20448;-91
2021/10/29 11:50:44;;;;;;;22.83;19.73;;;11.00;99.90;;;;;;5072128;28;20957;-91
2021/10/29 11:53:12;;;;;;;21.83;19.50;;;11.00;99.90;;;;;;5072923;28;20511;-91
2021/10/29 11:55:46;;;;;;;21.97;19.47;;;11.10;99.90;;;;;;5073342;28;20451;-91
2021/10/29 11:58:18;;;;;;;24.87;20.47;;;11.10;99.90;;;;;;5074662;28;20448;-90
2021/10/29 12:00:55;;;;;;;25.20;20.67;;;11.10;99.90;;;;;;5072961;28;20524;-90
2021/10/29 12:08:52;;;;;;;23.07;19.30;;;11.20;99.90;;;;;;5055564;28;20490;-91
2021/10/29 12:11:19;;;;;;;22.80;19.43;;;11.20;99.90;;;;;;5077534;28;20451;-91
2021/10/29 12:13:46;;;;;;;22.70;20.27;;;11.20;99.90;;;;;;5077504;28;20518;-91
2021/10/29 12:16:20;;;;;;;22.97;18.73;;;11.20;99.90;;;;;;5076505;28;20447;-91
2021/10/29 12:18:58;;;;;;;24.13;18.57;;;11.30;99.90;;;;;;5076374;28;20540;-92
2021/10/29 12:21:28;;;;;;;25.70;19.37;;;11.20;99.90;;;;;;5076921;28;20474;-91
2021/10/29 12:23:55;;;;;;;24.00;19.37;;;11.30;99.90;;;;;;5076406;28;20531;-90
2021/10/29 12:26:23;;;;;;;20.27;17.77;;;11.30;99.90;;;;;;5076371;28;20501;-91
2021/10/29 12:28:54;;;;;;;22.60;18.77;;;11.40;99.90;;;;;;5076483;28;20454;-91
2021/10/29 12:31:32;;;;;;;20.77;18.13;;;11.30;99.90;;;;;;5076356;28;20837;-91
2021/10/29 12:34:43;;;;;;;19.17;17.17;;;11.40;99.90;;;;;;5076466;28;20540;-92
2021/10/29 12:37:43;;;;;;;21.00;17.30;;;11.40;99.90;;;;;;5076975;28;20554;-91
2021/10/29 12:54:40;;;;;;;18.13;16.23;;;11.30;99.90;;;;;;5075613;28;20500;-91
2021/10/29 13:02:31;;;;;;;18.50;15.50;;;11.40;99.90;;;;;;5075423;28;20451;-90
2021/10/29 13:05:00;;;;;;;21.33;15.77;;;11.50;99.90;;;;;;5075325;28;20464;-91
2021/10/29 13:07:28;;;;;;;18.93;16.67;;;11.50;99.90;;;;;;5075618;28;20447;-91
2021/10/29 13:10:06;;;;;;;18.20;15.00;;;11.50;99.90;;;;;;5075316;28;20497;-91
2021/10/29 13:12:41;;;;;;;17.43;14.87;;;11.50;99.90;;;;;;5075425;28;20493;-91
2021/10/29 13:15:11;;;;;;;18.17;14.43;;;11.50;99.90;;;;;;5075437;28;20760;-91
2021/10/29 13:17:43;;;;;;;16.77;14.93;;;11.50;99.90;;;;;;5075209;28;20957;-91
2021/10/29 13:20:44;;;;;;;16.00;14.30;;;11.50;99.90;;;;;;5075570;28;20806;-91
2021/10/29 13:26:10;;;;;;;16.73;15.00;;;11.60;99.90;;;;;;5062397;28;20966;-91
2021/10/29 13:28:43;;;;;;;18.27;16.47;;;11.50;99.90;;;;;;5075113;28;20491;-92
2021/10/29 13:34:28;;;;;;;17.33;15.63;;;11.60;99.90;;;;;;5069855;28;20532;-85
2021/10/29 13:37:01;;;;;;;20.10;17.00;;;11.60;99.90;;;;;;5069836;28;20474;-85
2021/10/29 13:53:28;;;;;;;18.13;16.07;;;11.70;99.90;;;;;;5058075;28;20477;-86
2021/10/29 13:56:02;;;;;;;19.97;17.07;;;11.70;99.90;;;;;;5074307;28;20448;-86
2021/10/29 14:04:19;;;;;;;19.83;17.73;;;11.60;99.90;;;;;;5073845;28;20435;-85
2021/10/29 14:29:08;;;;;;;18.60;16.43;;;11.40;99.90;;;;;;5060305;28;20597;-85
2021/10/29 14:31:39;;;;;;;19.93;17.20;;;11.30;99.90;;;;;;5076254;28;20447;-85
2021/10/29 14:34:11;;;;;;;23.30;18.67;;;11.30;99.90;;;;;;5074301;28;20471;-85
2021/10/29 14:36:45;;;;;;;23.47;19.60;;;11.30;99.90;;;;;;5073762;28;20451;-85
2021/10/29 14:39:15;;;;;;;21.27;18.47;;;11.30;99.90;;;;;;5061401;28;20459;-86
2021/10/29 14:41:48;;;;;;;21.20;18.90;;;11.30;99.90;;;;;;5072570;28;20447;-86
2021/10/29 14:44:19;;;;;;;24.03;18.60;;;11.30;99.90;;;;;;5072890;28;20462;-86
2021/10/29 14:46:56;;;;;;;21.00;18.80;;;11.40;99.90;;;;;;5072661;28;20439;-86
2021/10/29 14:49:55;;;;;;;20.23;18.07;;;11.30;99.90;;;;;;5072707;28;20576;-87
2021/10/29 15:04:01;;;;;;;19.87;17.50;;;11.20;99.90;;;;;;5010701;28;20453;-88
2021/10/29 15:17:45;;;;;;;19.23;17.23;;;10.90;99.90;;;;;;5066978;28;20445;-85
2021/10/29 15:25:52;;;;;;;20.43;17.33;;;10.70;99.90;;;;;;5070035;28;20475;-85
2021/10/29 15:28:27;;;;;;;18.23;16.33;;;10.70;99.90;;;;;;5072321;28;20439;-86
2021/10/29 15:31:00;;;;;;;19.60;16.97;;;10.60;99.90;;;;;;5075082;28;20933;-87
2021/10/29 15:33:40;;;;;;;19.57;17.20;;;10.50;99.90;;;;;;5071852;28;21051;-87
2021/10/29 15:41:47;;;;;;;20.33;18.23;;;10.30;99.90;;;;;;5069848;28;20925;-87
2021/10/29 15:44:17;;;;;;;21.60;18.37;;;10.20;99.90;;;;;;5072139;28;20435;-87
2021/10/29 15:46:50;;;;;;;21.93;19.60;;;10.20;99.90;;;;;;5072500;28;20799;-86
2021/10/29 15:49:23;;;;;;;19.93;17.70;;;10.10;99.90;;;;;;5072428;28;20440;-87
2021/10/29 15:51:53;;;;;;;21.40;18.13;;;10.00;99.90;;;;;;5072013;28;20481;-87
2021/10/29 15:54:21;;;;;;;20.63;18.43;;;9.90;99.90;;;;;;5071988;28;20467;-87
2021/10/29 15:56:50;;;;;;;22.27;19.87;;;9.90;99.90;;;;;;5072848;28;20447;-86